sensor_id;sensor_type;location;lat;lon;timestamp;P1;durP1;ratioP1;P2;durP2;ratioP2
4555;SDS011;2290;48.674;9.018;2022-12-20T00:01:20;4.00;;;2.77;;
4555;SDS011;2290;48.674;9.018;2022-12-20T00:03:48;6.50;;;3.17;;
4555;SDS011;2290;48.674;9.018;2022-12-20T00:06:15;6.17;;;3.13;;
4555;SDS011;2290;48.674;9.018;2022-12-20T00:08:41;5.43;;;3.00;;
4555;SDS011;2290;48.674;9.018;2022-12-20T00:11:07;6.13;;;3.20;;
4555;SDS011;2290;48.674;9.018;2022-12-20T00:13:33;5.90;;;3.50;;
4555;SDS011;2290;48.674;9.018;2022-12-20T00:16:33;6.67;;;3.70;;
4555;SDS011;2290;48.674;9.018;2022-12-20T00:18:53;3.83;;;3.00;;
4555;SDS011;2290;48.674;9.018;2022-12-20T00:21:20;4.80;;;3.40;;
4555;SDS011;2290;48.674;9.018;2022-12-20T00:23:46;4.13;;;2.90;;
4555;SDS011;2290;48.674;9.018;2022-12-20T00:26:13;6.03;;;3.60;;
4555;SDS011;2290;48.674;9.018;2022-12-20T00:28:43;4.87;;;3.60;;
4555;SDS011;2290;48.674;9.018;2022-12-20T00:31:10;4.43;;;3.23;;
4555;SDS011;2290;48.674;9.018;2022-12-20T00:33:38;4.90;;;3.20;;
4555;SDS011;2290;48.674;9.018;2022-12-20T00:36:04;6.37;;;2.90;;
4555;SDS011;2290;48.674;9.018;2022-12-20T00:38:31;6.40;;;3.60;;
4555;SDS011;2290;48.674;9.018;2022-12-20T00:41:04;6.53;;;2.77;;
4555;SDS011;2290;48.674;9.018;2022-12-20T00:43:32;5.33;;;2.93;;
4555;SDS011;2290;48.674;9.018;2022-12-20T00:45:58;6.57;;;3.83;;
4555;SDS011;2290;48.674;9.018;2022-12-20T00:48:24;6.97;;;3.27;;
4555;SDS011;2290;48.674;9.018;2022-12-20T00:50:50;3.77;;;3.17;;
4555;SDS011;2290;48.674;9.018;2022-12-20T00:53:16;4.23;;;3.50;;
4555;SDS011;2290;48.674;9.018;2022-12-20T00:55:43;4.23;;;3.20;;
4555;SDS011;2290;48.674;9.018;2022-12-20T00:58:10;6.30;;;3.23;;
4555;SDS011;2290;48.674;9.018;2022-12-20T01:00:36;6.50;;;3.07;;
4555;SDS011;2290;48.674;9.018;2022-12-20T01:03:02;5.40;;;3.13;;
4555;SDS011;2290;48.674;9.018;2022-12-20T01:05:28;3.80;;;3.03;;
4555;SDS011;2290;48.674;9.018;2022-12-20T01:07:53;6.43;;;3.40;;
4555;SDS011;2290;48.674;9.018;2022-12-20T01:10:19;6.00;;;3.40;;
4555;SDS011;2290;48.674;9.018;2022-12-20T01:12:45;6.60;;;3.17;;
4555;SDS011;2290;48.674;9.018;2022-12-20T01:15:10;7.20;;;3.43;;
4555;SDS011;2290;48.674;9.018;2022-12-20T01:17:36;6.40;;;3.43;;
4555;SDS011;2290;48.674;9.018;2022-12-20T01:20:02;5.03;;;3.27;;
4555;SDS011;2290;48.674;9.018;2022-12-20T01:22:29;6.67;;;3.57;;
4555;SDS011;2290;48.674;9.018;2022-12-20T01:24:55;6.27;;;3.67;;
4555;SDS011;2290;48.674;9.018;2022-12-20T01:27:20;5.00;;;3.60;;
4555;SDS011;2290;48.674;9.018;2022-12-20T01:29:46;8.10;;;3.30;;
4555;SDS011;2290;48.674;9.018;2022-12-20T01:32:12;6.57;;;3.50;;
4555;SDS011;2290;48.674;9.018;2022-12-20T01:34:37;5.93;;;2.90;;
4555;SDS011;2290;48.674;9.018;2022-12-20T01:37:03;5.87;;;3.40;;
4555;SDS011;2290;48.674;9.018;2022-12-20T01:39:29;6.60;;;3.60;;
4555;SDS011;2290;48.674;9.018;2022-12-20T01:41:54;5.97;;;2.87;;
4555;SDS011;2290;48.674;9.018;2022-12-20T01:46:46;4.97;;;3.60;;
4555;SDS011;2290;48.674;9.018;2022-12-20T01:49:15;10.60;;;3.60;;
4555;SDS011;2290;48.674;9.018;2022-12-20T01:51:48;6.33;;;4.00;;
4555;SDS011;2290;48.674;9.018;2022-12-20T01:54:21;6.10;;;3.63;;
4555;SDS011;2290;48.674;9.018;2022-12-20T01:56:53;4.47;;;3.30;;
4555;SDS011;2290;48.674;9.018;2022-12-20T01:59:25;7.23;;;3.47;;
4555;SDS011;2290;48.674;9.018;2022-12-20T02:01:52;6.77;;;3.20;;
4555;SDS011;2290;48.674;9.018;2022-12-20T02:04:21;5.97;;;3.50;;
4555;SDS011;2290;48.674;9.018;2022-12-20T02:06:47;5.67;;;3.37;;
4555;SDS011;2290;48.674;9.018;2022-12-20T02:09:13;6.67;;;4.20;;
4555;SDS011;2290;48.674;9.018;2022-12-20T02:11:53;5.13;;;2.80;;
4555;SDS011;2290;48.674;9.018;2022-12-20T02:20:24;6.73;;;3.70;;
4555;SDS011;2290;48.674;9.018;2022-12-20T02:31:51;5.03;;;2.77;;
4555;SDS011;2290;48.674;9.018;2022-12-20T02:34:25;5.37;;;3.13;;
4555;SDS011;2290;48.674;9.018;2022-12-20T02:36:53;6.40;;;3.47;;
4555;SDS011;2290;48.674;9.018;2022-12-20T02:39:18;9.00;;;3.70;;
4555;SDS011;2290;48.674;9.018;2022-12-20T02:44:37;6.47;;;3.67;;
4555;SDS011;2290;48.674;9.018;2022-12-20T02:47:32;6.33;;;3.60;;
4555;SDS011;2290;48.674;9.018;2022-12-20T02:50:02;7.07;;;3.80;;
4555;SDS011;2290;48.674;9.018;2022-12-20T02:52:31;4.73;;;3.10;;
4555;SDS011;2290;48.674;9.018;2022-12-20T02:54:57;5.53;;;2.80;;
4555;SDS011;2290;48.674;9.018;2022-12-20T02:57:26;6.13;;;3.10;;
4555;SDS011;2290;48.674;9.018;2022-12-20T03:00:00;8.60;;;3.70;;
4555;SDS011;2290;48.674;9.018;2022-12-20T03:02:30;6.70;;;3.80;;
4555;SDS011;2290;48.674;9.018;2022-12-20T03:05:17;5.40;;;3.37;;
4555;SDS011;2290;48.674;9.018;2022-12-20T03:07:46;7.83;;;3.30;;
4555;SDS011;2290;48.674;9.018;2022-12-20T03:10:12;5.10;;;3.50;;
4555;SDS011;2290;48.674;9.018;2022-12-20T03:12:37;5.37;;;3.53;;
4555;SDS011;2290;48.674;9.018;2022-12-20T03:15:03;4.33;;;2.90;;
4555;SDS011;2290;48.674;9.018;2022-12-20T03:17:29;4.00;;;3.30;;
4555;SDS011;2290;48.674;9.018;2022-12-20T03:19:54;3.80;;;2.73;;
4555;SDS011;2290;48.674;9.018;2022-12-20T03:22:20;5.20;;;3.13;;
4555;SDS011;2290;48.674;9.018;2022-12-20T03:24:47;3.20;;;2.77;;
4555;SDS011;2290;48.674;9.018;2022-12-20T03:27:13;4.73;;;3.10;;
4555;SDS011;2290;48.674;9.018;2022-12-20T03:29:39;6.87;;;3.13;;
4555;SDS011;2290;48.674;9.018;2022-12-20T03:32:04;5.10;;;3.37;;
4555;SDS011;2290;48.674;9.018;2022-12-20T03:34:30;7.97;;;3.47;;
4555;SDS011;2290;48.674;9.018;2022-12-20T03:36:56;3.83;;;2.90;;
4555;SDS011;2290;48.674;9.018;2022-12-20T03:39:21;4.43;;;2.77;;
4555;SDS011;2290;48.674;9.018;2022-12-20T03:41:47;4.17;;;2.97;;
4555;SDS011;2290;48.674;9.018;2022-12-20T03:44:13;5.60;;;3.03;;
4555;SDS011;2290;48.674;9.018;2022-12-20T03:46:38;4.87;;;3.20;;
4555;SDS011;2290;48.674;9.018;2022-12-20T03:49:04;4.63;;;2.80;;
4555;SDS011;2290;48.674;9.018;2022-12-20T03:51:29;6.80;;;3.13;;
4555;SDS011;2290;48.674;9.018;2022-12-20T03:53:55;4.70;;;2.83;;
4555;SDS011;2290;48.674;9.018;2022-12-20T03:56:21;6.93;;;3.30;;
4555;SDS011;2290;48.674;9.018;2022-12-20T03:58:48;5.27;;;3.23;;
4555;SDS011;2290;48.674;9.018;2022-12-20T04:01:24;4.67;;;2.80;;
4555;SDS011;2290;48.674;9.018;2022-12-20T04:03:51;4.43;;;2.80;;
4555;SDS011;2290;48.674;9.018;2022-12-20T04:06:17;3.83;;;3.10;;
4555;SDS011;2290;48.674;9.018;2022-12-20T04:08:44;4.53;;;3.20;;
4555;SDS011;2290;48.674;9.018;2022-12-20T04:11:10;3.60;;;2.63;;
4555;SDS011;2290;48.674;9.018;2022-12-20T04:13:45;5.90;;;3.20;;
4555;SDS011;2290;48.674;9.018;2022-12-20T04:16:13;7.27;;;3.47;;
4555;SDS011;2290;48.674;9.018;2022-12-20T04:18:41;5.33;;;3.13;;
4555;SDS011;2290;48.674;9.018;2022-12-20T04:21:07;5.30;;;2.67;;
4555;SDS011;2290;48.674;9.018;2022-12-20T04:23:34;5.20;;;3.10;;
4555;SDS011;2290;48.674;9.018;2022-12-20T04:26:00;5.67;;;3.30;;
4555;SDS011;2290;48.674;9.018;2022-12-20T04:28:27;4.73;;;3.40;;
4555;SDS011;2290;48.674;9.018;2022-12-20T04:30:53;5.17;;;2.73;;
4555;SDS011;2290;48.674;9.018;2022-12-20T04:33:19;4.97;;;2.70;;
4555;SDS011;2290;48.674;9.018;2022-12-20T04:35:44;4.87;;;3.00;;
4555;SDS011;2290;48.674;9.018;2022-12-20T04:38:10;4.80;;;3.53;;
4555;SDS011;2290;48.674;9.018;2022-12-20T04:40:35;6.87;;;2.90;;
4555;SDS011;2290;48.674;9.018;2022-12-20T04:43:01;6.20;;;3.27;;
4555;SDS011;2290;48.674;9.018;2022-12-20T04:45:26;6.83;;;3.20;;
4555;SDS011;2290;48.674;9.018;2022-12-20T04:47:52;3.17;;;2.67;;
4555;SDS011;2290;48.674;9.018;2022-12-20T04:50:17;3.73;;;2.83;;
4555;SDS011;2290;48.674;9.018;2022-12-20T04:52:43;4.93;;;3.00;;
4555;SDS011;2290;48.674;9.018;2022-12-20T04:55:27;4.50;;;3.00;;
4555;SDS011;2290;48.674;9.018;2022-12-20T04:57:53;6.93;;;3.63;;
4555;SDS011;2290;48.674;9.018;2022-12-20T05:00:19;3.40;;;2.60;;
4555;SDS011;2290;48.674;9.018;2022-12-20T05:02:46;6.60;;;3.10;;
4555;SDS011;2290;48.674;9.018;2022-12-20T05:05:11;5.87;;;3.40;;
4555;SDS011;2290;48.674;9.018;2022-12-20T05:07:38;7.00;;;3.33;;
4555;SDS011;2290;48.674;9.018;2022-12-20T05:10:04;6.70;;;3.77;;
4555;SDS011;2290;48.674;9.018;2022-12-20T05:12:30;4.80;;;3.17;;
4555;SDS011;2290;48.674;9.018;2022-12-20T05:14:55;5.47;;;2.70;;
4555;SDS011;2290;48.674;9.018;2022-12-20T05:17:21;3.87;;;2.77;;
4555;SDS011;2290;48.674;9.018;2022-12-20T05:19:47;6.30;;;3.63;;
4555;SDS011;2290;48.674;9.018;2022-12-20T05:22:12;5.37;;;3.17;;
4555;SDS011;2290;48.674;9.018;2022-12-20T05:24:56;4.57;;;3.43;;
4555;SDS011;2290;48.674;9.018;2022-12-20T05:27:40;3.97;;;3.00;;
4555;SDS011;2290;48.674;9.018;2022-12-20T05:30:06;7.40;;;3.10;;
4555;SDS011;2290;48.674;9.018;2022-12-20T05:32:32;6.23;;;3.47;;
4555;SDS011;2290;48.674;9.018;2022-12-20T05:34:58;4.60;;;3.30;;
4555;SDS011;2290;48.674;9.018;2022-12-20T05:37:24;4.23;;;3.20;;
4555;SDS011;2290;48.674;9.018;2022-12-20T05:39:49;6.03;;;3.50;;
4555;SDS011;2290;48.674;9.018;2022-12-20T05:42:16;5.40;;;2.80;;
4555;SDS011;2290;48.674;9.018;2022-12-20T05:44:42;5.57;;;3.10;;
4555;SDS011;2290;48.674;9.018;2022-12-20T05:47:07;4.60;;;3.10;;
4555;SDS011;2290;48.674;9.018;2022-12-20T05:49:33;4.03;;;3.00;;
4555;SDS011;2290;48.674;9.018;2022-12-20T05:51:59;6.20;;;3.07;;
4555;SDS011;2290;48.674;9.018;2022-12-20T05:54:25;7.97;;;2.97;;
4555;SDS011;2290;48.674;9.018;2022-12-20T05:56:51;3.07;;;2.53;;
4555;SDS011;2290;48.674;9.018;2022-12-20T05:59:16;4.17;;;2.80;;
4555;SDS011;2290;48.674;9.018;2022-12-20T06:01:42;5.00;;;3.07;;
4555;SDS011;2290;48.674;9.018;2022-12-20T06:04:08;5.20;;;3.33;;
4555;SDS011;2290;48.674;9.018;2022-12-20T06:06:33;5.50;;;2.93;;
4555;SDS011;2290;48.674;9.018;2022-12-20T06:08:59;5.73;;;3.20;;
4555;SDS011;2290;48.674;9.018;2022-12-20T06:11:25;4.47;;;2.90;;
4555;SDS011;2290;48.674;9.018;2022-12-20T06:13:51;4.77;;;2.80;;
4555;SDS011;2290;48.674;9.018;2022-12-20T06:16:16;5.73;;;2.83;;
4555;SDS011;2290;48.674;9.018;2022-12-20T06:18:44;4.07;;;2.63;;
4555;SDS011;2290;48.674;9.018;2022-12-20T06:21:10;4.83;;;2.93;;
4555;SDS011;2290;48.674;9.018;2022-12-20T06:23:35;4.47;;;2.87;;
4555;SDS011;2290;48.674;9.018;2022-12-20T06:26:01;4.00;;;2.60;;
4555;SDS011;2290;48.674;9.018;2022-12-20T06:28:28;3.03;;;2.40;;
4555;SDS011;2290;48.674;9.018;2022-12-20T06:30:55;5.90;;;2.90;;
4555;SDS011;2290;48.674;9.018;2022-12-20T06:33:22;4.77;;;2.47;;
4555;SDS011;2290;48.674;9.018;2022-12-20T06:35:48;4.40;;;2.40;;
4555;SDS011;2290;48.674;9.018;2022-12-20T06:38:14;3.77;;;2.60;;
4555;SDS011;2290;48.674;9.018;2022-12-20T06:40:40;3.53;;;2.57;;
4555;SDS011;2290;48.674;9.018;2022-12-20T06:43:06;2.80;;;2.47;;
4555;SDS011;2290;48.674;9.018;2022-12-20T06:45:31;5.43;;;2.80;;
4555;SDS011;2290;48.674;9.018;2022-12-20T06:47:57;5.73;;;2.93;;
4555;SDS011;2290;48.674;9.018;2022-12-20T06:50:23;3.60;;;2.60;;
4555;SDS011;2290;48.674;9.018;2022-12-20T06:52:49;3.70;;;2.20;;
4555;SDS011;2290;48.674;9.018;2022-12-20T06:55:14;3.93;;;2.33;;
4555;SDS011;2290;48.674;9.018;2022-12-20T06:57:40;2.83;;;2.30;;
4555;SDS011;2290;48.674;9.018;2022-12-20T07:00:06;2.60;;;2.03;;
4555;SDS011;2290;48.674;9.018;2022-12-20T07:02:32;4.40;;;2.40;;
4555;SDS011;2290;48.674;9.018;2022-12-20T07:04:58;2.90;;;2.40;;
4555;SDS011;2290;48.674;9.018;2022-12-20T07:07:23;3.73;;;2.43;;
4555;SDS011;2290;48.674;9.018;2022-12-20T07:09:49;3.97;;;2.53;;
4555;SDS011;2290;48.674;9.018;2022-12-20T07:12:15;4.30;;;2.70;;
4555;SDS011;2290;48.674;9.018;2022-12-20T07:14:40;3.80;;;2.50;;
4555;SDS011;2290;48.674;9.018;2022-12-20T07:17:06;4.33;;;2.30;;
4555;SDS011;2290;48.674;9.018;2022-12-20T07:19:32;2.93;;;2.40;;
4555;SDS011;2290;48.674;9.018;2022-12-20T07:22:00;3.30;;;2.40;;
4555;SDS011;2290;48.674;9.018;2022-12-20T07:24:25;3.57;;;2.57;;
4555;SDS011;2290;48.674;9.018;2022-12-20T07:26:51;3.63;;;2.30;;
4555;SDS011;2290;48.674;9.018;2022-12-20T07:29:16;6.03;;;3.10;;
4555;SDS011;2290;48.674;9.018;2022-12-20T07:31:42;4.93;;;2.60;;
4555;SDS011;2290;48.674;9.018;2022-12-20T07:34:07;3.43;;;2.57;;
4555;SDS011;2290;48.674;9.018;2022-12-20T07:36:33;3.33;;;2.90;;
4555;SDS011;2290;48.674;9.018;2022-12-20T07:38:59;4.63;;;2.50;;
4555;SDS011;2290;48.674;9.018;2022-12-20T07:41:24;5.10;;;2.57;;
4555;SDS011;2290;48.674;9.018;2022-12-20T07:43:50;3.77;;;2.30;;
4555;SDS011;2290;48.674;9.018;2022-12-20T07:46:16;6.37;;;2.70;;
4555;SDS011;2290;48.674;9.018;2022-12-20T07:48:42;3.50;;;2.37;;
4555;SDS011;2290;48.674;9.018;2022-12-20T07:51:09;5.83;;;2.67;;
4555;SDS011;2290;48.674;9.018;2022-12-20T07:53:40;4.60;;;2.77;;
4555;SDS011;2290;48.674;9.018;2022-12-20T07:56:12;5.93;;;2.73;;
4555;SDS011;2290;48.674;9.018;2022-12-20T07:58:39;4.30;;;2.53;;
4555;SDS011;2290;48.674;9.018;2022-12-20T08:01:06;5.97;;;3.13;;
4555;SDS011;2290;48.674;9.018;2022-12-20T08:03:37;6.10;;;2.90;;
4555;SDS011;2290;48.674;9.018;2022-12-20T08:06:06;3.43;;;2.33;;
4555;SDS011;2290;48.674;9.018;2022-12-20T08:08:34;4.97;;;2.57;;
4555;SDS011;2290;48.674;9.018;2022-12-20T08:11:02;4.40;;;2.80;;
4555;SDS011;2290;48.674;9.018;2022-12-20T08:13:31;4.00;;;2.73;;
4555;SDS011;2290;48.674;9.018;2022-12-20T08:15:57;5.90;;;2.80;;
4555;SDS011;2290;48.674;9.018;2022-12-20T08:18:23;4.33;;;2.70;;
4555;SDS011;2290;48.674;9.018;2022-12-20T08:20:49;3.70;;;2.87;;
4555;SDS011;2290;48.674;9.018;2022-12-20T08:23:14;3.07;;;2.43;;
4555;SDS011;2290;48.674;9.018;2022-12-20T08:25:40;3.30;;;2.47;;
4555;SDS011;2290;48.674;9.018;2022-12-20T08:28:05;5.30;;;2.80;;
4555;SDS011;2290;48.674;9.018;2022-12-20T08:30:31;4.10;;;2.47;;
4555;SDS011;2290;48.674;9.018;2022-12-20T08:32:56;4.03;;;2.57;;
4555;SDS011;2290;48.674;9.018;2022-12-20T08:35:22;5.70;;;3.20;;
4555;SDS011;2290;48.674;9.018;2022-12-20T08:37:50;4.60;;;2.63;;
4555;SDS011;2290;48.674;9.018;2022-12-20T08:40:16;3.40;;;2.50;;
4555;SDS011;2290;48.674;9.018;2022-12-20T08:42:43;2.60;;;2.33;;
4555;SDS011;2290;48.674;9.018;2022-12-20T08:45:09;4.27;;;2.43;;
4555;SDS011;2290;48.674;9.018;2022-12-20T08:47:35;3.67;;;2.70;;
4555;SDS011;2290;48.674;9.018;2022-12-20T08:50:00;3.70;;;2.63;;
4555;SDS011;2290;48.674;9.018;2022-12-20T08:52:27;3.30;;;2.40;;
4555;SDS011;2290;48.674;9.018;2022-12-20T08:54:53;3.80;;;2.27;;
4555;SDS011;2290;48.674;9.018;2022-12-20T08:57:19;3.80;;;2.37;;
4555;SDS011;2290;48.674;9.018;2022-12-20T08:59:44;3.50;;;2.60;;
4555;SDS011;2290;48.674;9.018;2022-12-20T09:02:10;3.20;;;2.40;;
4555;SDS011;2290;48.674;9.018;2022-12-20T09:04:35;2.53;;;2.17;;
4555;SDS011;2290;48.674;9.018;2022-12-20T09:07:01;3.27;;;2.07;;
4555;SDS011;2290;48.674;9.018;2022-12-20T09:09:26;3.23;;;2.27;;
4555;SDS011;2290;48.674;9.018;2022-12-20T09:11:52;3.60;;;2.10;;
4555;SDS011;2290;48.674;9.018;2022-12-20T09:14:18;4.10;;;2.90;;
4555;SDS011;2290;48.674;9.018;2022-12-20T09:16:44;5.73;;;2.80;;
4555;SDS011;2290;48.674;9.018;2022-12-20T09:19:10;4.90;;;2.53;;
4555;SDS011;2290;48.674;9.018;2022-12-20T09:21:37;3.20;;;2.20;;
4555;SDS011;2290;48.674;9.018;2022-12-20T09:24:03;4.30;;;2.50;;
4555;SDS011;2290;48.674;9.018;2022-12-20T09:26:31;3.73;;;2.50;;
4555;SDS011;2290;48.674;9.018;2022-12-20T09:28:59;2.90;;;2.40;;
4555;SDS011;2290;48.674;9.018;2022-12-20T09:31:26;3.00;;;2.00;;
4555;SDS011;2290;48.674;9.018;2022-12-20T09:33:52;3.20;;;2.10;;
4555;SDS011;2290;48.674;9.018;2022-12-20T09:36:22;4.37;;;2.50;;
4555;SDS011;2290;48.674;9.018;2022-12-20T09:38:49;3.93;;;2.13;;
4555;SDS011;2290;48.674;9.018;2022-12-20T09:43:44;4.37;;;2.57;;
4555;SDS011;2290;48.674;9.018;2022-12-20T09:46:10;4.93;;;3.50;;
4555;SDS011;2290;48.674;9.018;2022-12-20T09:48:39;2.73;;;2.10;;
4555;SDS011;2290;48.674;9.018;2022-12-20T09:51:15;5.13;;;2.80;;
4555;SDS011;2290;48.674;9.018;2022-12-20T09:59:52;3.60;;;2.20;;
4555;SDS011;2290;48.674;9.018;2022-12-20T10:02:22;3.60;;;2.43;;
4555;SDS011;2290;48.674;9.018;2022-12-20T10:04:49;2.67;;;2.43;;
4555;SDS011;2290;48.674;9.018;2022-12-20T10:13:15;4.57;;;2.40;;
4555;SDS011;2290;48.674;9.018;2022-12-20T10:15:54;3.47;;;2.20;;
4555;SDS011;2290;48.674;9.018;2022-12-20T10:18:33;4.20;;;2.40;;
4555;SDS011;2290;48.674;9.018;2022-12-20T10:21:21;2.47;;;2.20;;
4555;SDS011;2290;48.674;9.018;2022-12-20T10:24:01;4.70;;;2.43;;
4555;SDS011;2290;48.674;9.018;2022-12-20T10:26:29;3.80;;;2.10;;
4555;SDS011;2290;48.674;9.018;2022-12-20T10:28:56;4.67;;;2.10;;
4555;SDS011;2290;48.674;9.018;2022-12-20T10:31:22;2.80;;;2.30;;
4555;SDS011;2290;48.674;9.018;2022-12-20T10:33:49;4.00;;;2.23;;
4555;SDS011;2290;48.674;9.018;2022-12-20T10:36:19;5.13;;;2.13;;
4555;SDS011;2290;48.674;9.018;2022-12-20T10:38:59;3.43;;;2.27;;
4555;SDS011;2290;48.674;9.018;2022-12-20T10:41:27;3.53;;;2.40;;
4555;SDS011;2290;48.674;9.018;2022-12-20T10:43:55;3.30;;;2.23;;
4555;SDS011;2290;48.674;9.018;2022-12-20T10:46:34;3.30;;;2.20;;
4555;SDS011;2290;48.674;9.018;2022-12-20T10:51:53;2.70;;;2.07;;
4555;SDS011;2290;48.674;9.018;2022-12-20T10:54:39;4.93;;;2.80;;
4555;SDS011;2290;48.674;9.018;2022-12-20T10:57:18;7.43;;;2.60;;
4555;SDS011;2290;48.674;9.018;2022-12-20T10:59:51;3.97;;;2.47;;
4555;SDS011;2290;48.674;9.018;2022-12-20T11:05:00;3.13;;;2.37;;
4555;SDS011;2290;48.674;9.018;2022-12-20T11:07:27;4.07;;;2.07;;
4555;SDS011;2290;48.674;9.018;2022-12-20T11:09:56;3.10;;;2.33;;
4555;SDS011;2290;48.674;9.018;2022-12-20T11:12:23;4.80;;;2.10;;
4555;SDS011;2290;48.674;9.018;2022-12-20T11:14:49;5.00;;;2.40;;
4555;SDS011;2290;48.674;9.018;2022-12-20T11:17:18;6.07;;;2.50;;
4555;SDS011;2290;48.674;9.018;2022-12-20T11:22:52;4.13;;;2.40;;
4555;SDS011;2290;48.674;9.018;2022-12-20T11:34:02;2.43;;;1.93;;
4555;SDS011;2290;48.674;9.018;2022-12-20T11:36:48;4.23;;;2.50;;
4555;SDS011;2290;48.674;9.018;2022-12-20T11:39:50;2.40;;;2.10;;
4555;SDS011;2290;48.674;9.018;2022-12-20T11:53:21;2.83;;;1.90;;
4555;SDS011;2290;48.674;9.018;2022-12-20T11:56:46;2.57;;;2.00;;
4555;SDS011;2290;48.674;9.018;2022-12-20T11:59:13;4.40;;;2.10;;
4555;SDS011;2290;48.674;9.018;2022-12-20T12:02:07;4.90;;;2.07;;
4555;SDS011;2290;48.674;9.018;2022-12-20T12:04:37;3.33;;;2.20;;
4555;SDS011;2290;48.674;9.018;2022-12-20T12:07:20;3.47;;;2.37;;
4555;SDS011;2290;48.674;9.018;2022-12-20T12:12:26;2.20;;;2.00;;
4555;SDS011;2290;48.674;9.018;2022-12-20T12:18:06;2.57;;;1.93;;
4555;SDS011;2290;48.674;9.018;2022-12-20T12:20:47;5.00;;;2.40;;
4555;SDS011;2290;48.674;9.018;2022-12-20T12:28:45;2.50;;;2.03;;
4555;SDS011;2290;48.674;9.018;2022-12-20T12:31:17;3.23;;;1.83;;
4555;SDS011;2290;48.674;9.018;2022-12-20T12:34:08;2.70;;;1.87;;
4555;SDS011;2290;48.674;9.018;2022-12-20T12:36:45;6.90;;;1.93;;
4555;SDS011;2290;48.674;9.018;2022-12-20T12:45:57;4.80;;;2.40;;
4555;SDS011;2290;48.674;9.018;2022-12-20T12:48:31;3.27;;;2.00;;
4555;SDS011;2290;48.674;9.018;2022-12-20T12:51:03;2.30;;;1.90;;
4555;SDS011;2290;48.674;9.018;2022-12-20T12:55:55;2.90;;;2.40;;
4555;SDS011;2290;48.674;9.018;2022-12-20T13:03:13;1.90;;;1.70;;
4555;SDS011;2290;48.674;9.018;2022-12-20T13:05:40;5.43;;;2.23;;
4555;SDS011;2290;48.674;9.018;2022-12-20T13:08:16;3.97;;;2.70;;
4555;SDS011;2290;48.674;9.018;2022-12-20T13:10:55;2.73;;;2.00;;
4555;SDS011;2290;48.674;9.018;2022-12-20T13:13:22;3.97;;;2.07;;
4555;SDS011;2290;48.674;9.018;2022-12-20T13:15:49;2.77;;;1.90;;
4555;SDS011;2290;48.674;9.018;2022-12-20T13:18:19;3.57;;;2.20;;
4555;SDS011;2290;48.674;9.018;2022-12-20T13:26:56;3.00;;;1.93;;
4555;SDS011;2290;48.674;9.018;2022-12-20T13:29:27;2.57;;;2.00;;
4555;SDS011;2290;48.674;9.018;2022-12-20T13:31:59;4.03;;;2.10;;
4555;SDS011;2290;48.674;9.018;2022-12-20T13:34:36;2.70;;;2.40;;
4555;SDS011;2290;48.674;9.018;2022-12-20T13:37:23;4.47;;;2.20;;
4555;SDS011;2290;48.674;9.018;2022-12-20T13:39:54;3.90;;;2.10;;
4555;SDS011;2290;48.674;9.018;2022-12-20T13:45:00;3.27;;;2.30;;
4555;SDS011;2290;48.674;9.018;2022-12-20T13:47:33;5.60;;;2.10;;
4555;SDS011;2290;48.674;9.018;2022-12-20T13:52:55;6.33;;;2.50;;
4555;SDS011;2290;48.674;9.018;2022-12-20T13:55:29;2.93;;;2.27;;
4555;SDS011;2290;48.674;9.018;2022-12-20T13:57:57;3.47;;;2.40;;
4555;SDS011;2290;48.674;9.018;2022-12-20T14:00:28;3.30;;;2.20;;
4555;SDS011;2290;48.674;9.018;2022-12-20T14:02:54;5.63;;;2.90;;
4555;SDS011;2290;48.674;9.018;2022-12-20T14:05:30;3.83;;;2.00;;
4555;SDS011;2290;48.674;9.018;2022-12-20T14:07:59;2.90;;;2.47;;
4555;SDS011;2290;48.674;9.018;2022-12-20T14:10:28;3.83;;;2.43;;
4555;SDS011;2290;48.674;9.018;2022-12-20T14:12:56;2.73;;;2.33;;
4555;SDS011;2290;48.674;9.018;2022-12-20T14:17:52;2.30;;;1.93;;
4555;SDS011;2290;48.674;9.018;2022-12-20T14:20:30;3.67;;;2.00;;
4555;SDS011;2290;48.674;9.018;2022-12-20T14:23:08;3.33;;;2.10;;
4555;SDS011;2290;48.674;9.018;2022-12-20T14:25:42;3.67;;;2.00;;
4555;SDS011;2290;48.674;9.018;2022-12-20T14:31:02;2.50;;;1.90;;
4555;SDS011;2290;48.674;9.018;2022-12-20T14:38:41;3.57;;;2.30;;
4555;SDS011;2290;48.674;9.018;2022-12-20T14:46:32;3.67;;;2.23;;
4555;SDS011;2290;48.674;9.018;2022-12-20T14:51:51;2.70;;;1.87;;
4555;SDS011;2290;48.674;9.018;2022-12-20T14:54:28;4.43;;;2.30;;
4555;SDS011;2290;48.674;9.018;2022-12-20T14:56:53;3.27;;;1.90;;
4555;SDS011;2290;48.674;9.018;2022-12-20T14:59:28;2.63;;;2.40;;
4555;SDS011;2290;48.674;9.018;2022-12-20T15:01:55;2.80;;;1.63;;
4555;SDS011;2290;48.674;9.018;2022-12-20T15:04:29;4.60;;;2.30;;
4555;SDS011;2290;48.674;9.018;2022-12-20T15:06:56;3.77;;;2.33;;
4555;SDS011;2290;48.674;9.018;2022-12-20T15:09:23;2.80;;;2.03;;
4555;SDS011;2290;48.674;9.018;2022-12-20T15:11:48;3.97;;;1.90;;
4555;SDS011;2290;48.674;9.018;2022-12-20T15:14:24;4.10;;;2.20;;
4555;SDS011;2290;48.674;9.018;2022-12-20T15:16:59;2.33;;;2.13;;
4555;SDS011;2290;48.674;9.018;2022-12-20T15:19:26;3.30;;;2.10;;
4555;SDS011;2290;48.674;9.018;2022-12-20T15:21:52;2.40;;;1.90;;
4555;SDS011;2290;48.674;9.018;2022-12-20T15:24:18;2.23;;;1.73;;
4555;SDS011;2290;48.674;9.018;2022-12-20T15:26:47;3.40;;;2.10;;
4555;SDS011;2290;48.674;9.018;2022-12-20T15:29:18;1.73;;;1.63;;
4555;SDS011;2290;48.674;9.018;2022-12-20T15:32:26;2.70;;;2.10;;
4555;SDS011;2290;48.674;9.018;2022-12-20T15:34:48;3.30;;;2.20;;
4555;SDS011;2290;48.674;9.018;2022-12-20T15:37:14;2.27;;;1.90;;
4555;SDS011;2290;48.674;9.018;2022-12-20T15:39:40;2.50;;;1.87;;
4555;SDS011;2290;48.674;9.018;2022-12-20T15:42:06;6.90;;;1.90;;
4555;SDS011;2290;48.674;9.018;2022-12-20T15:44:37;4.80;;;1.90;;
4555;SDS011;2290;48.674;9.018;2022-12-20T15:47:02;2.30;;;2.00;;
4555;SDS011;2290;48.674;9.018;2022-12-20T15:49:29;2.83;;;2.00;;
4555;SDS011;2290;48.674;9.018;2022-12-20T15:51:56;3.53;;;2.10;;
4555;SDS011;2290;48.674;9.018;2022-12-20T15:56:55;3.53;;;2.20;;
4555;SDS011;2290;48.674;9.018;2022-12-20T15:59:22;3.10;;;2.07;;
4555;SDS011;2290;48.674;9.018;2022-12-20T16:01:47;3.10;;;1.70;;
4555;SDS011;2290;48.674;9.018;2022-12-20T16:04:14;2.80;;;2.00;;
4555;SDS011;2290;48.674;9.018;2022-12-20T16:06:41;4.07;;;2.13;;
4555;SDS011;2290;48.674;9.018;2022-12-20T16:09:08;2.50;;;1.70;;
4555;SDS011;2290;48.674;9.018;2022-12-20T16:11:34;2.40;;;1.80;;
4555;SDS011;2290;48.674;9.018;2022-12-20T16:13:59;2.23;;;2.00;;
4555;SDS011;2290;48.674;9.018;2022-12-20T16:16:26;3.67;;;1.93;;
4555;SDS011;2290;48.674;9.018;2022-12-20T16:18:53;2.97;;;2.03;;
4555;SDS011;2290;48.674;9.018;2022-12-20T16:21:20;3.03;;;2.00;;
4555;SDS011;2290;48.674;9.018;2022-12-20T16:23:51;3.33;;;1.93;;
4555;SDS011;2290;48.674;9.018;2022-12-20T16:26:20;2.30;;;1.70;;
4555;SDS011;2290;48.674;9.018;2022-12-20T16:28:47;3.33;;;2.00;;
4555;SDS011;2290;48.674;9.018;2022-12-20T16:31:22;2.17;;;1.80;;
4555;SDS011;2290;48.674;9.018;2022-12-20T16:33:51;3.03;;;1.83;;
4555;SDS011;2290;48.674;9.018;2022-12-20T16:36:17;2.50;;;2.03;;
4555;SDS011;2290;48.674;9.018;2022-12-20T16:38:43;3.60;;;2.13;;
4555;SDS011;2290;48.674;9.018;2022-12-20T16:41:18;5.00;;;2.70;;
4555;SDS011;2290;48.674;9.018;2022-12-20T16:43:45;4.13;;;2.13;;
4555;SDS011;2290;48.674;9.018;2022-12-20T16:46:12;4.73;;;2.83;;
4555;SDS011;2290;48.674;9.018;2022-12-20T16:48:42;5.47;;;2.97;;
4555;SDS011;2290;48.674;9.018;2022-12-20T16:53:46;3.83;;;2.40;;
4555;SDS011;2290;48.674;9.018;2022-12-20T16:56:12;4.97;;;2.47;;
4555;SDS011;2290;48.674;9.018;2022-12-20T16:58:38;2.77;;;2.00;;
4555;SDS011;2290;48.674;9.018;2022-12-20T17:01:04;3.60;;;2.30;;
4555;SDS011;2290;48.674;9.018;2022-12-20T17:03:30;3.20;;;2.20;;
4555;SDS011;2290;48.674;9.018;2022-12-20T17:05:55;2.73;;;2.03;;
4555;SDS011;2290;48.674;9.018;2022-12-20T17:08:21;3.10;;;2.37;;
4555;SDS011;2290;48.674;9.018;2022-12-20T17:10:47;2.87;;;2.03;;
4555;SDS011;2290;48.674;9.018;2022-12-20T17:13:13;3.40;;;2.27;;
4555;SDS011;2290;48.674;9.018;2022-12-20T17:15:39;3.80;;;2.83;;
4555;SDS011;2290;48.674;9.018;2022-12-20T17:18:07;3.47;;;2.57;;
4555;SDS011;2290;48.674;9.018;2022-12-20T17:20:32;3.97;;;2.60;;
4555;SDS011;2290;48.674;9.018;2022-12-20T17:22:58;3.70;;;2.67;;
4555;SDS011;2290;48.674;9.018;2022-12-20T17:27:55;4.50;;;2.60;;
4555;SDS011;2290;48.674;9.018;2022-12-20T17:30:21;4.90;;;2.73;;